Time;durP1;ratioP1;P1;durP2;ratioP2;P2;SDS_P1;SDS_P2;PMS_P1;PMS_P2;Temp;Humidity;BMP_temperature;BMP_pressure;BME280_temperature;BME280_humidity;BME280_pressure;Samples;Min_cycle;Max_cycle;Signal;HPM_P1;HPM_P2
2023/05/03 00:01:36;;;;;;;9.30;2.80;;;6.00;99.90;;;;;;5019842;28;20595;-79
2023/05/03 00:04:02;;;;;;;6.05;2.88;;;6.00;99.90;;;;;;5021717;28;20069;-76
2023/05/03 00:06:28;;;;;;;7.55;3.25;;;5.90;99.90;;;;;;5017104;28;20594;-75
2023/05/03 00:08:54;;;;;;;8.73;3.03;;;5.90;99.90;;;;;;5002808;28;20049;-76
2023/05/03 00:11:20;;;;;;;5.55;3.20;;;6.00;99.90;;;;;;5022984;28;20048;-74
2023/05/03 00:13:46;;;;;;;6.10;2.90;;;6.00;99.90;;;;;;5022742;28;20081;-74
2023/05/03 00:16:11;;;;;;;6.47;3.05;;;5.90;99.90;;;;;;5020279;28;20068;-76
2023/05/03 00:18:37;;;;;;;7.93;2.80;;;5.90;99.90;;;;;;5019150;28;20042;-76
2023/05/03 00:21:03;;;;;;;8.50;3.30;;;5.90;99.90;;;;;;5019227;28;20034;-75
2023/05/03 00:23:29;;;;;;;11.00;3.67;;;5.80;99.90;;;;;;5022686;28;20057;-76
2023/05/03 00:25:56;;;;;;;8.05;3.17;;;5.80;99.90;;;;;;5022858;28;20053;-75
2023/05/03 00:28:22;;;;;;;10.93;3.78;;;5.80;99.90;;;;;;5013972;28;20045;-81
2023/05/03 00:30:47;;;;;;;10.52;3.95;;;5.80;99.90;;;;;;5004873;28;20034;-74
2023/05/03 00:33:15;;;;;;;7.93;3.25;;;5.80;99.90;;;;;;5021787;28;20558;-75
2023/05/03 00:35:41;;;;;;;6.68;2.90;;;5.80;99.90;;;;;;5018847;28;20076;-75
2023/05/03 00:38:06;;;;;;;7.32;2.90;;;5.80;99.90;;;;;;5019053;28;20081;-75
2023/05/03 00:40:32;;;;;;;6.95;2.75;;;5.80;99.90;;;;;;5021000;28;20053;-79
2023/05/03 00:42:57;;;;;;;7.05;3.35;;;5.80;99.90;;;;;;5022296;28;20452;-75
2023/05/03 00:45:23;;;;;;;8.18;3.20;;;5.80;99.90;;;;;;5022404;28;20055;-74
2023/05/03 00:47:49;;;;;;;23.77;11.23;;;5.70;99.90;;;;;;4993293;28;20130;-79
2023/05/03 00:50:15;;;;;;;19.75;9.48;;;6.00;99.90;;;;;;5016782;28;20041;-75
2023/05/03 00:52:41;;;;;;;18.38;7.85;;;5.70;99.90;;;;;;5002314;28;20049;-75
2023/05/03 00:55:08;;;;;;;12.70;6.00;;;5.70;99.90;;;;;;5000722;28;20041;-75
2023/05/03 00:57:34;;;;;;;14.45;6.57;;;5.70;99.90;;;;;;5001157;28;20049;-76
2023/05/03 00:59:59;;;;;;;9.32;4.70;;;5.60;99.90;;;;;;5021167;28;20041;-75
2023/05/03 01:02:26;;;;;;;9.27;4.05;;;5.80;99.90;;;;;;5004171;28;20049;-76
2023/05/03 01:04:53;;;;;;;6.85;3.80;;;5.80;99.90;;;;;;5020329;28;20056;-76
2023/05/03 01:07:30;;;;;;;9.98;4.47;;;5.80;99.90;;;;;;5018226;28;20573;-75
2023/05/03 01:10:05;;;;;;;7.63;4.18;;;5.70;99.90;;;;;;5019289;28;20060;-76
2023/05/03 01:12:50;;;;;;;;;;;5.80;99.90;;;;;;5022264;28;20408;-77
2023/05/03 01:15:43;;;;;;;8.55;4.00;;;5.80;99.90;;;;;;5018299;28;20422;-76
2023/05/03 01:18:17;;;;;;;8.13;3.17;;;5.80;99.90;;;;;;5006101;28;20044;-75
2023/05/03 01:20:46;;;;;;;8.70;3.08;;;5.80;99.90;;;;;;5018506;28;20053;-75
2023/05/03 01:23:44;;;;;;;8.63;3.05;;;5.90;99.90;;;;;;5019581;28;20060;-80
2023/05/03 01:26:16;;;;;;;7.78;3.30;;;5.90;99.90;;;;;;4949157;29;20518;-75
2023/05/03 01:28:42;;;;;;;6.70;3.20;;;5.90;99.90;;;;;;4941047;29;20062;-76
2023/05/03 01:31:09;;;;;;;8.07;3.03;;;5.90;99.90;;;;;;4941082;29;20403;-74
2023/05/03 01:33:52;;;;;;;10.35;3.58;;;5.90;99.90;;;;;;4933163;29;20062;-75
2023/05/03 01:36:32;;;;;;;5.28;2.97;;;5.90;99.90;;;;;;4948787;29;20051;-75
2023/05/03 01:39:06;;;;;;;8.77;3.03;;;5.90;99.90;;;;;;4940782;28;20075;-75
2023/05/03 01:41:34;;;;;;;4.35;2.50;;;5.90;99.90;;;;;;4939182;29;20066;-75
2023/05/03 01:44:00;;;;;;;4.82;2.90;;;6.00;99.90;;;;;;4922189;29;20409;-75
2023/05/03 01:46:26;;;;;;;9.32;2.55;;;5.90;99.90;;;;;;4945933;28;20050;-75
2023/05/03 01:48:51;;;;;;;6.93;2.63;;;5.90;99.90;;;;;;4924915;29;20059;-75
2023/05/03 01:51:17;;;;;;;3.85;2.17;;;5.90;99.90;;;;;;4940756;29;20047;-74
2023/05/03 01:53:43;;;;;;;5.65;3.00;;;5.90;99.90;;;;;;4938734;29;20051;-74
2023/05/03 01:56:08;;;;;;;6.68;2.30;;;5.90;99.90;;;;;;4925493;29;20162;-75
2023/05/03 01:58:34;;;;;;;7.07;2.65;;;5.90;99.90;;;;;;4948615;29;20143;-76
2023/05/03 02:00:59;;;;;;;6.90;2.47;;;5.80;99.90;;;;;;4954065;28;20144;-74
2023/05/03 02:03:25;;;;;;;5.28;2.58;;;5.80;99.90;;;;;;5002965;28;20057;-78
2023/05/03 02:05:51;;;;;;;9.93;2.80;;;5.70;99.90;;;;;;5020041;28;20037;-75
2023/05/03 02:08:16;;;;;;;5.72;2.50;;;5.70;99.90;;;;;;5004043;28;20505;-74
2023/05/03 02:10:45;;;;;;;9.88;2.85;;;5.70;99.90;;;;;;5003236;28;20054;-74
2023/05/03 02:13:10;;;;;;;10.75;2.83;;;5.60;99.90;;;;;;5019183;28;21371;-75
2023/05/03 02:15:36;;;;;;;5.65;2.50;;;5.60;99.90;;;;;;5024591;28;20076;-74
2023/05/03 02:18:02;;;;;;;7.70;2.75;;;5.50;99.90;;;;;;5005627;28;20154;-74
2023/05/03 02:20:31;;;;;;;5.57;2.80;;;5.50;99.90;;;;;;5000965;28;20489;-74
2023/05/03 02:22:57;;;;;;;5.85;2.70;;;5.60;99.90;;;;;;5020015;28;20107;-74
2023/05/03 02:25:22;;;;;;;6.20;2.67;;;5.70;99.90;;;;;;5003289;28;20501;-74
2023/05/03 02:27:48;;;;;;;4.88;2.55;;;5.50;99.90;;;;;;4999309;28;20058;-74
2023/05/03 02:30:13;;;;;;;4.97;2.33;;;5.40;99.90;;;;;;5003983;28;20057;-73
2023/05/03 02:32:39;;;;;;;7.97;2.60;;;5.50;99.90;;;;;;5024197;28;20397;-74
2023/05/03 02:35:05;;;;;;;7.00;2.88;;;5.50;99.90;;;;;;5024721;28;20376;-76
2023/05/03 02:37:31;;;;;;;4.35;2.35;;;5.50;99.90;;;;;;5016001;28;20045;-75
2023/05/03 02:39:56;;;;;;;5.13;2.80;;;5.50;99.90;;;;;;5006639;28;20056;-75
2023/05/03 02:42:22;;;;;;;7.00;2.85;;;5.50;99.90;;;;;;5024048;28;20543;-75
2023/05/03 02:44:48;;;;;;;8.02;3.38;;;5.50;99.90;;;;;;5002874;28;20045;-75
2023/05/03 02:47:14;;;;;;;7.32;2.58;;;5.50;99.90;;;;;;5003692;28;20057;-75
2023/05/03 02:49:39;;;;;;;5.43;2.65;;;5.50;99.90;;;;;;5022115;28;20042;-76
2023/05/03 02:52:05;;;;;;;5.57;2.58;;;5.50;99.90;;;;;;5002417;28;20042;-82
2023/05/03 02:54:30;;;;;;;5.15;2.85;;;5.50;99.90;;;;;;5006377;28;20503;-76
2023/05/03 02:56:56;;;;;;;9.18;2.53;;;5.50;99.90;;;;;;5002718;28;20052;-76
2023/05/03 02:59:21;;;;;;;7.45;2.80;;;5.60;99.90;;;;;;5021718;28;20046;-75
2023/05/03 03:01:48;;;;;;;8.85;2.90;;;5.70;99.90;;;;;;5004058;28;20112;-75
2023/05/03 03:04:14;;;;;;;11.32;3.08;;;5.60;99.90;;;;;;5020000;28;20096;-75
2023/05/03 03:06:40;;;;;;;5.20;2.40;;;5.60;99.90;;;;;;5002904;28;20539;-78
2023/05/03 03:09:06;;;;;;;4.88;2.30;;;5.70;99.90;;;;;;5005827;28;20062;-79
2023/05/03 03:11:32;;;;;;;8.07;2.63;;;5.90;99.90;;;;;;5023062;28;20593;-75
2023/05/03 03:13:57;;;;;;;5.50;2.47;;;5.70;99.90;;;;;;5001633;28;20064;-76
2023/05/03 03:16:23;;;;;;;4.03;2.60;;;5.70;99.90;;;;;;5023326;28;20045;-78
2023/05/03 03:18:49;;;;;;;4.78;2.60;;;5.70;99.90;;;;;;5016933;28;20050;-75
2023/05/03 03:21:14;;;;;;;8.05;2.80;;;5.80;99.90;;;;;;5020235;28;20060;-76
2023/05/03 03:23:40;;;;;;;10.13;2.97;;;5.80;99.90;;;;;;5002310;28;20065;-75
2023/05/03 03:26:06;;;;;;;4.38;2.33;;;6.40;99.90;;;;;;5020451;28;20141;-77
2023/05/03 03:28:31;;;;;;;8.25;2.90;;;5.80;99.90;;;;;;5003832;28;20449;-76
2023/05/03 03:30:57;;;;;;;9.45;3.10;;;5.80;99.90;;;;;;5020601;28;20113;-75
2023/05/03 03:33:24;;;;;;;6.60;2.75;;;5.80;99.90;;;;;;5004081;28;20381;-79
2023/05/03 03:35:50;;;;;;;9.07;2.58;;;5.80;99.90;;;;;;4990392;28;20050;-80
2023/05/03 03:38:15;;;;;;;6.70;2.90;;;5.80;99.90;;;;;;5010439;28;20095;-77
2023/05/03 03:40:41;;;;;;;5.45;2.55;;;5.80;99.90;;;;;;5020215;28;20470;-79
2023/05/03 03:43:06;;;;;;;6.00;3.00;;;5.80;99.90;;;;;;5020156;28;20048;-78
2023/05/03 03:45:32;;;;;;;5.03;2.88;;;5.80;99.90;;;;;;5025016;28;20052;-74
2023/05/03 03:47:58;;;;;;;3.95;2.70;;;5.70;99.90;;;;;;5002106;28;20088;-75
2023/05/03 03:50:24;;;;;;;4.97;2.78;;;5.70;99.90;;;;;;5019899;28;20095;-73
2023/05/03 03:52:50;;;;;;;8.07;3.00;;;5.60;99.90;;;;;;5025518;28;20530;-75
2023/05/03 03:55:16;;;;;;;7.57;2.78;;;5.70;99.90;;;;;;5016636;28;20121;-75
2023/05/03 03:57:41;;;;;;;8.95;3.10;;;5.70;99.90;;;;;;5020513;28;20088;-75
2023/05/03 04:00:09;;;;;;;6.35;3.03;;;5.70;99.90;;;;;;5022592;28;20130;-75
2023/05/03 04:02:34;;;;;;;5.63;2.90;;;5.60;99.90;;;;;;5002364;28;20115;-81
2023/05/03 04:05:00;;;;;;;7.38;2.90;;;5.70;99.90;;;;;;5022351;28;20042;-79
2023/05/03 04:07:26;;;;;;;5.82;2.35;;;5.70;99.90;;;;;;5021393;28;20120;-78
2023/05/03 04:09:52;;;;;;;3.92;2.42;;;5.60;99.90;;;;;;5020296;28;20559;-77
2023/05/03 04:12:17;;;;;;;6.20;2.75;;;5.60;99.90;;;;;;5025707;28;20058;-76
2023/05/03 04:14:43;;;;;;;8.48;2.70;;;5.60;99.90;;;;;;5001612;28;20489;-75
2023/05/03 04:17:08;;;;;;;8.10;2.63;;;5.70;99.90;;;;;;5020379;28;20045;-74
2023/05/03 04:19:34;;;;;;;3.47;2.10;;;6.40;99.90;;;;;;4999081;28;20033;-75
2023/05/03 04:22:00;;;;;;;7.50;2.70;;;5.70;99.90;;;;;;5000290;28;20096;-75
2023/05/03 04:24:30;;;;;;;4.97;2.45;;;5.70;99.90;;;;;;5022561;28;20569;-77
2023/05/03 04:26:57;;;;;;;6.18;2.55;;;5.70;99.90;;;;;;5004895;28;20136;-75
2023/05/03 04:29:23;;;;;;;6.55;3.00;;;5.60;99.90;;;;;;4998693;28;20413;-77
2023/05/03 04:31:49;;;;;;;10.07;3.08;;;5.70;99.90;;;;;;5017831;28;20061;-75
2023/05/03 04:34:15;;;;;;;6.88;2.90;;;6.50;99.90;;;;;;5020309;28;20057;-74
2023/05/03 04:36:41;;;;;;;6.55;2.95;;;5.70;99.90;;;;;;5022706;28;20047;-76
2023/05/03 04:39:08;;;;;;;4.30;2.88;;;5.70;99.90;;;;;;5021489;28;20400;-79
2023/05/03 04:41:34;;;;;;;7.55;3.03;;;5.80;99.90;;;;;;5003574;28;20056;-80
2023/05/03 04:43:59;;;;;;;6.47;3.15;;;5.80;99.90;;;;;;5010111;28;20053;-78
2023/05/03 04:46:25;;;;;;;6.78;3.22;;;5.80;99.90;;;;;;5021804;28;20060;-86
2023/05/03 04:48:51;;;;;;;7.22;2.83;;;5.80;99.90;;;;;;5019256;28;20161;-75
2023/05/03 04:51:16;;;;;;;5.57;2.90;;;5.90;99.90;;;;;;5018784;28;20497;-75
2023/05/03 04:53:42;;;;;;;6.38;2.92;;;5.90;99.90;;;;;;5003013;28;20048;-79
2023/05/03 04:56:07;;;;;;;5.22;2.78;;;6.00;99.90;;;;;;5019194;28;20034;-77
2023/05/03 04:58:33;;;;;;;7.43;2.88;;;6.00;99.90;;;;;;5018864;28;20049;-76
2023/05/03 05:00:59;;;;;;;7.32;2.45;;;6.00;99.90;;;;;;5021187;28;20797;-75
2023/05/03 05:03:24;;;;;;;5.25;2.67;;;6.10;99.90;;;;;;5004099;28;20065;-74
2023/05/03 05:05:50;;;;;;;6.60;2.60;;;6.10;99.90;;;;;;5020472;28;20041;-75
2023/05/03 05:08:15;;;;;;;7.32;2.60;;;6.20;99.90;;;;;;5018604;28;20112;-75
2023/05/03 05:10:42;;;;;;;8.32;2.17;;;6.20;99.90;;;;;;4984409;28;20461;-76
2023/05/03 05:13:07;;;;;;;6.18;2.10;;;6.30;99.90;;;;;;5018268;28;20037;-74
2023/05/03 05:15:33;;;;;;;3.97;1.40;;;6.30;99.90;;;;;;5001072;28;20057;-76
2023/05/03 05:17:59;;;;;;;5.80;1.60;;;6.30;99.90;;;;;;5018707;28;20823;-76
2023/05/03 05:20:25;;;;;;;6.03;1.63;;;6.70;99.90;;;;;;5018494;28;20783;-76
2023/05/03 05:22:51;;;;;;;4.43;1.80;;;6.50;99.90;;;;;;5020447;28;20099;-76
2023/05/03 05:25:16;;;;;;;7.55;1.80;;;6.50;99.90;;;;;;5019184;28;20120;-74
2023/05/03 05:27:42;;;;;;;7.25;1.40;;;6.60;99.90;;;;;;5000544;28;20507;-76
2023/05/03 05:30:08;;;;;;;4.38;1.50;;;6.70;99.90;;;;;;5018800;28;20076;-74
2023/05/03 05:32:33;;;;;;;5.82;1.98;;;6.70;99.90;;;;;;5017607;28;20100;-74
2023/05/03 05:34:59;;;;;;;5.00;1.35;;;6.80;99.90;;;;;;5018304;28;20121;-74
2023/05/03 05:37:26;;;;;;;5.43;1.42;;;6.80;99.90;;;;;;5020102;28;20049;-74
2023/05/03 05:39:52;;;;;;;3.00;1.40;;;6.90;99.90;;;;;;5021531;28;20056;-75
2023/05/03 05:42:18;;;;;;;7.47;1.50;;;6.90;99.90;;;;;;5020647;28;20041;-74
2023/05/03 05:44:43;;;;;;;6.25;1.30;;;7.00;99.90;;;;;;4978923;28;20059;-75
2023/05/03 05:47:10;;;;;;;4.38;1.27;;;7.00;99.90;;;;;;5003221;28;20045;-75
2023/05/03 05:49:35;;;;;;;6.50;1.88;;;7.10;99.90;;;;;;5019535;28;20055;-74
2023/05/03 05:52:01;;;;;;;4.22;1.25;;;7.20;99.90;;;;;;5000208;28;20507;-74
2023/05/03 05:54:27;;;;;;;3.97;1.40;;;7.20;99.90;;;;;;5005236;28;20481;-79
2023/05/03 05:56:52;;;;;;;3.13;1.10;;;7.30;99.90;;;;;;5000823;28;20132;-80
2023/05/03 05:59:18;;;;;;;2.78;1.13;;;7.30;99.90;;;;;;5018232;28;20042;-77
2023/05/03 06:01:45;;;;;;;4.57;1.27;;;7.50;99.90;;;;;;5018799;28;20125;-75
2023/05/03 06:04:14;;;;;;;3.00;1.10;;;7.50;99.90;;;;;;5016879;28;20092;-76
2023/05/03 06:06:40;;;;;;;3.10;1.17;;;7.60;99.90;;;;;;5017819;28;20088;-80
2023/05/03 06:09:07;;;;;;;4.07;0.93;;;7.60;99.90;;;;;;5002830;28;20049;-75
2023/05/03 06:11:33;;;;;;;3.53;0.90;;;7.70;99.90;;;;;;5020878;28;20767;-77
2023/05/03 06:14:02;;;;;;;2.78;1.33;;;7.80;99.90;;;;;;5016521;28;20053;-76
2023/05/03 06:16:28;;;;;;;1.75;0.90;;;7.90;99.90;;;;;;5020735;28;20095;-77
2023/05/03 06:18:53;;;;;;;3.47;0.90;;;8.70;99.90;;;;;;5020589;28;20053;-78
2023/05/03 06:21:20;;;;;;;3.40;0.90;;;8.00;99.90;;;;;;5017621;28;20090;-78
2023/05/03 06:23:46;;;;;;;3.33;1.02;;;8.20;99.90;;;;;;5012825;28;20046;-81
2023/05/03 06:26:11;;;;;;;3.22;1.00;;;8.20;99.90;;;;;;5018763;28;20500;-75
2023/05/03 06:28:37;;;;;;;4.93;1.15;;;8.20;99.90;;;;;;5003016;28;20045;-75
2023/05/03 06:31:03;;;;;;;3.03;1.10;;;8.40;99.90;;;;;;5020982;28;20400;-76
2023/05/03 06:33:28;;;;;;;5.53;1.13;;;8.40;99.90;;;;;;5000100;28;20464;-77
2023/05/03 06:35:55;;;;;;;5.53;0.90;;;8.50;99.90;;;;;;5016992;28;20045;-76
2023/05/03 06:38:21;;;;;;;2.65;0.77;;;9.00;99.90;;;;;;4984012;28;20096;-75
2023/05/03 06:40:47;;;;;;;3.17;0.88;;;8.60;99.90;;;;;;5020718;28;20045;-80
2023/05/03 06:43:13;;;;;;;3.70;0.93;;;8.70;99.90;;;;;;5000595;28;20302;-76
2023/05/03 06:45:43;;;;;;;3.88;0.85;;;9.10;99.90;;;;;;5020050;28;20042;-75
2023/05/03 06:48:08;;;;;;;4.82;0.80;;;8.80;99.90;;;;;;5021001;28;20056;-74
2023/05/03 06:50:34;;;;;;;2.78;0.80;;;8.90;99.90;;;;;;5019084;28;20041;-76
2023/05/03 06:53:01;;;;;;;4.97;0.90;;;9.00;99.90;;;;;;4996737;28;20049;-75
2023/05/03 06:55:27;;;;;;;2.90;0.70;;;9.10;99.90;;;;;;5024045;28;20046;-77
2023/05/03 06:57:52;;;;;;;4.82;0.77;;;9.20;99.90;;;;;;5021760;28;20045;-75
2023/05/03 07:00:20;;;;;;;4.00;0.80;;;9.20;99.90;;;;;;5003317;28;20050;-78
2023/05/03 07:02:46;;;;;;;5.03;0.82;;;9.30;99.90;;;;;;5021868;28;20050;-76
2023/05/03 07:05:12;;;;;;;6.43;0.98;;;9.40;99.90;;;;;;5023675;28;20481;-76
2023/05/03 07:07:37;;;;;;;7.90;0.98;;;9.40;99.90;;;;;;5023982;28;20068;-79
2023/05/03 07:10:03;;;;;;;3.50;0.80;;;9.60;99.90;;;;;;5021218;28;20037;-77
2023/05/03 07:12:29;;;;;;;4.03;0.80;;;9.60;99.90;;;;;;5004127;28;20139;-76
2023/05/03 07:14:55;;;;;;;5.40;0.80;;;9.60;99.90;;;;;;5005399;28;20046;-81
2023/05/03 07:17:20;;;;;;;6.72;1.20;;;9.70;99.90;;;;;;5003304;28;20108;-78
2023/05/03 07:19:47;;;;;;;15.13;1.50;;;9.80;99.90;;;;;;5020820;28;20042;-76
2023/05/03 07:22:14;;;;;;;18.70;2.25;;;10.10;99.90;;;;;;4989772;28;20069;-74
2023/05/03 07:24:40;;;;;;;9.85;1.35;;;10.00;99.90;;;;;;5024566;28;20069;-77
2023/05/03 07:27:05;;;;;;;5.05;0.73;;;10.10;99.90;;;;;;5023324;28;20033;-76
2023/05/03 07:29:31;;;;;;;2.05;0.60;;;10.10;99.90;;;;;;5020394;28;20442;-80
2023/05/03 07:31:57;;;;;;;5.15;0.93;;;10.20;99.90;;;;;;5020810;28;20048;-75
2023/05/03 07:34:23;;;;;;;6.40;0.85;;;10.50;99.90;;;;;;5004728;28;20157;-76
2023/05/03 07:36:50;;;;;;;3.33;0.80;;;10.70;99.90;;;;;;5005588;28;20437;-76
2023/05/03 07:39:16;;;;;;;2.95;0.80;;;10.40;99.90;;;;;;5022862;28;20050;-74
2023/05/03 07:41:42;;;;;;;3.53;0.70;;;10.90;99.90;;;;;;5016233;28;20555;-73
2023/05/03 07:44:08;;;;;;;3.55;0.93;;;10.50;99.90;;;;;;4993906;28;20503;-73
2023/05/03 07:46:34;;;;;;;2.22;0.80;;;10.60;99.90;;;;;;5011721;28;20663;-77
2023/05/03 07:49:04;;;;;;;5.68;0.68;;;10.60;99.90;;;;;;5009214;28;20053;-78
2023/05/03 07:51:37;;;;;;;4.82;0.50;;;10.60;99.90;;;;;;5020175;28;20041;-77
2023/05/03 07:54:03;;;;;;;3.17;0.70;;;10.60;99.90;;;;;;5020013;28;20038;-76
2023/05/03 07:56:29;;;;;;;3.35;0.70;;;10.60;99.90;;;;;;5019799;28;20049;-76
2023/05/03 07:58:56;;;;;;;6.18;0.80;;;10.70;99.90;;;;;;5012081;28;20049;-77
2023/05/03 08:01:21;;;;;;;4.88;0.70;;;10.90;99.90;;;;;;5018764;28;20060;-75
2023/05/03 08:03:49;;;;;;;6.53;1.58;;;10.80;99.90;;;;;;5021934;28;20045;-74
2023/05/03 08:06:18;;;;;;;4.95;0.90;;;11.00;99.90;;;;;;5002290;28;20046;-74
2023/05/03 08:08:44;;;;;;;2.53;0.70;;;10.80;99.90;;;;;;5012294;28;20034;-74
2023/05/03 08:11:10;;;;;;;2.58;0.68;;;11.30;99.90;;;;;;5024213;28;20370;-77
2023/05/03 08:13:36;;;;;;;6.00;0.80;;;11.00;99.90;;;;;;5023134;28;20045;-75
2023/05/03 08:16:03;;;;;;;5.38;0.60;;;10.90;99.90;;;;;;5021536;28;20099;-75
2023/05/03 08:18:29;;;;;;;4.75;0.93;;;11.00;99.90;;;;;;4984557;28;20133;-76
2023/05/03 08:20:54;;;;;;;4.03;0.80;;;11.10;99.90;;;;;;5019978;28;20125;-75
2023/05/03 08:23:20;;;;;;;3.70;0.70;;;11.20;99.90;;;;;;5011412;28;20073;-75
2023/05/03 08:25:47;;;;;;;2.97;0.73;;;11.30;99.90;;;;;;5016464;28;20129;-74
2023/05/03 08:28:13;;;;;;;2.25;0.63;;;11.20;99.90;;;;;;5021061;28;20041;-75
2023/05/03 08:30:40;;;;;;;4.88;0.80;;;11.20;99.90;;;;;;5023163;28;20052;-75
2023/05/03 08:33:08;;;;;;;3.42;0.80;;;11.20;99.90;;;;;;5022831;28;20784;-75
2023/05/03 08:35:34;;;;;;;7.97;1.10;;;11.20;99.90;;;;;;5011824;28;20046;-76
2023/05/03 08:38:00;;;;;;;3.15;0.88;;;11.30;99.90;;;;;;5002248;28;20049;-75
2023/05/03 08:40:27;;;;;;;2.72;0.80;;;11.30;99.90;;;;;;5020962;28;20542;-75
2023/05/03 08:42:55;;;;;;;3.65;0.90;;;11.30;99.90;;;;;;5005206;28;20081;-74
2023/05/03 08:45:22;;;;;;;2.38;0.50;;;11.30;99.90;;;;;;5022334;28;20046;-75
2023/05/03 08:47:53;;;;;;;1.52;0.77;;;11.30;99.90;;;;;;5019531;28;20046;-73
2023/05/03 08:50:19;;;;;;;3.22;0.63;;;11.30;99.90;;;;;;5019712;28;20049;-75
2023/05/03 08:52:45;;;;;;;3.97;0.80;;;11.40;99.90;;;;;;5021837;28;20060;-74
2023/05/03 08:55:11;;;;;;;4.60;0.90;;;11.40;99.90;;;;;;5022460;28;20119;-75
2023/05/03 08:57:37;;;;;;;2.03;0.82;;;11.40;99.90;;;;;;4996030;28;20420;-77
2023/05/03 09:00:11;;;;;;;4.45;0.80;;;11.60;99.90;;;;;;5011394;28;20042;-77
2023/05/03 09:02:38;;;;;;;3.57;0.90;;;11.50;99.90;;;;;;5020035;28;20046;-80
2023/05/03 09:05:14;;;;;;;9.70;1.00;;;11.50;99.90;;;;;;5022483;28;20480;-77
2023/05/03 09:07:39;;;;;;;3.63;0.82;;;11.50;99.90;;;;;;4996130;28;20060;-73
2023/05/03 09:10:22;;;;;;;3.63;0.85;;;11.50;99.90;;;;;;5026731;28;20396;-77
2023/05/03 09:12:47;;;;;;;6.82;0.90;;;11.40;99.90;;;;;;5019067;28;20065;-76
2023/05/03 09:15:21;;;;;;;2.88;0.70;;;11.50;99.90;;;;;;5004465;28;20053;-75
2023/05/03 09:18:09;;;;;;;4.25;1.00;;;11.60;99.90;;;;;;5021965;28;20492;-76
2023/05/03 09:20:36;;;;;;;2.80;0.88;;;11.60;99.90;;;;;;5000484;28;20042;-76
2023/05/03 09:23:02;;;;;;;5.32;0.80;;;11.60;99.90;;;;;;5019381;28;20108;-77
2023/05/03 09:25:44;;;;;;;4.55;0.90;;;11.70;99.90;;;;;;5021773;28;20443;-77
2023/05/03 09:28:10;;;;;;;2.75;0.95;;;11.80;99.90;;;;;;5002911;28;20063;-76
2023/05/03 09:30:36;;;;;;;5.53;0.80;;;12.00;99.90;;;;;;5010728;28;20092;-79
2023/05/03 09:33:03;;;;;;;5.00;0.95;;;11.80;99.90;;;;;;5018981;28;20046;-78
2023/05/03 09:35:29;;;;;;;4.53;0.82;;;11.90;99.90;;;;;;5021730;28;20087;-77
2023/05/03 09:37:55;;;;;;;3.78;0.90;;;11.90;99.90;;;;;;5022481;28;20392;-77
2023/05/03 09:40:22;;;;;;;4.15;1.00;;;12.00;99.90;;;;;;5014969;28;20054;-82
2023/05/03 09:43:15;;;;;;;3.03;0.70;;;12.00;99.90;;;;;;5019088;28;20100;-77
2023/05/03 09:45:40;;;;;;;2.40;0.90;;;12.00;99.90;;;;;;5021713;28;20073;-74
2023/05/03 09:48:07;;;;;;;2.80;0.75;;;12.00;99.90;;;;;;5021428;28;20037;-78
2023/05/03 09:50:34;;;;;;;5.53;0.77;;;12.00;99.90;;;;;;5020505;28;20144;-77
2023/05/03 09:53:02;;;;;;;4.97;0.85;;;12.10;99.90;;;;;;5018665;28;20675;-80
2023/05/03 09:55:35;;;;;;;5.20;0.80;;;12.20;99.90;;;;;;5001203;28;20061;-77
2023/05/03 09:58:07;;;;;;;3.15;0.85;;;12.20;99.90;;;;;;5020588;28;20481;-77
2023/05/03 10:00:42;;;;;;;5.03;0.80;;;12.30;99.90;;;;;;5022075;28;20408;-77
2023/05/03 10:03:17;;;;;;;5.70;0.90;;;12.40;99.90;;;;;;5010847;28;20052;-80
2023/05/03 10:05:46;;;;;;;2.90;0.70;;;12.40;99.90;;;;;;5021229;28;20435;-77
2023/05/03 10:08:23;;;;;;;3.38;0.90;;;12.40;99.90;;;;;;5012750;28;20046;-76
2023/05/03 10:10:53;;;;;;;6.63;1.00;;;12.50;99.90;;;;;;5019562;28;20093;-78
2023/05/03 10:13:21;;;;;;;8.80;1.02;;;12.60;99.90;;;;;;5021187;28;20049;-77
2023/05/03 10:15:52;;;;;;;5.22;0.80;;;12.70;99.90;;;;;;5021822;28;20050;-76
2023/05/03 10:18:22;;;;;;;3.13;0.80;;;12.80;99.90;;;;;;5009254;28;20121;-77
2023/05/03 10:20:57;;;;;;;2.92;0.95;;;12.90;99.90;;;;;;5000955;28;20129;-78
2023/05/03 10:23:22;;;;;;;3.17;1.00;;;12.90;99.90;;;;;;5010653;28;20054;-76
2023/05/03 10:26:06;;;;;;;3.42;1.38;;;13.20;99.90;;;;;;5018924;28;20042;-77
2023/05/03 10:28:38;;;;;;;4.97;0.80;;;13.40;99.90;;;;;;5013403;28;20535;-76
2023/05/03 10:31:03;;;;;;;6.53;0.90;;;13.30;99.90;;;;;;5022066;28;20037;-77
2023/05/03 10:33:31;;;;;;;5.38;1.20;;;13.40;99.90;;;;;;5025692;28;20041;-76
2023/05/03 10:35:58;;;;;;;17.45;2.88;;;13.40;99.90;;;;;;5007449;28;20042;-77
2023/05/03 10:38:25;;;;;;;7.18;1.15;;;13.50;99.90;;;;;;5023543;28;20051;-80
2023/05/03 10:40:52;;;;;;;4.82;1.55;;;13.50;99.90;;;;;;5004007;28;20050;-76
2023/05/03 10:43:32;;;;;;;6.30;1.50;;;13.70;99.90;;;;;;5021443;28;20046;-74
2023/05/03 10:46:02;;;;;;;5.15;0.85;;;13.40;99.90;;;;;;5023885;28;20049;-75
2023/05/03 10:48:29;;;;;;;5.18;1.23;;;13.70;99.90;;;;;;5023670;28;20084;-74
2023/05/03 10:50:56;;;;;;;4.70;1.10;;;13.70;99.90;;;;;;4995772;28;20056;-78
2023/05/03 10:53:34;;;;;;;5.10;1.10;;;13.70;99.90;;;;;;5021473;28;20511;-77
2023/05/03 10:56:14;;;;;;;3.00;1.10;;;13.60;99.90;;;;;;5014906;28;20400;-76
2023/05/03 10:58:50;;;;;;;6.93;1.00;;;13.60;99.90;;;;;;5022858;28;20042;-75
2023/05/03 11:01:17;;;;;;;3.05;0.85;;;13.70;99.90;;;;;;5007358;28;20045;-75
2023/05/03 11:03:54;;;;;;;5.15;1.40;;;13.70;99.90;;;;;;5020871;28;20358;-77
2023/05/03 11:06:34;;;;;;;4.47;1.10;;;13.70;99.90;;;;;;5006609;28;20072;-75
2023/05/03 11:09:01;;;;;;;3.95;1.00;;;13.70;99.90;;;;;;5017730;28;20164;-76
2023/05/03 11:11:27;;;;;;;6.47;1.30;;;13.60;99.90;;;;;;5020954;28;20054;-74
2023/05/03 11:13:53;;;;;;;3.92;1.10;;;13.70;99.90;;;;;;5021339;28;20052;-76
2023/05/03 11:16:19;;;;;;;2.95;1.10;;;13.80;99.90;;;;;;5023689;28;20038;-75
2023/05/03 11:18:47;;;;;;;3.88;0.98;;;14.10;99.90;;;;;;5006685;28;20128;-74
2023/05/03 11:21:13;;;;;;;4.57;1.10;;;14.60;99.90;;;;;;5020633;28;20056;-75
2023/05/03 11:23:40;;;;;;;9.68;1.55;;;14.90;99.90;;;;;;5018004;28;20080;-75
2023/05/03 11:26:06;;;;;;;4.18;0.93;;;15.30;99.90;;;;;;5003884;28;20473;-77
2023/05/03 11:28:32;;;;;;;6.22;1.08;;;15.50;99.90;;;;;;5023820;28;20123;-84
2023/05/03 11:30:57;;;;;;;5.30;1.17;;;15.80;99.90;;;;;;5001739;28;20044;-72
2023/05/03 11:33:23;;;;;;;3.20;1.20;;;15.60;99.90;;;;;;5020131;28;20041;-75
2023/05/03 11:35:49;;;;;;;6.53;1.35;;;15.70;99.90;;;;;;5020383;28;20042;-74
2023/05/03 11:38:15;;;;;;;6.45;2.05;;;15.60;99.90;;;;;;5002271;28;20085;-75
2023/05/03 11:40:41;;;;;;;3.47;1.10;;;15.70;99.90;;;;;;5016620;28;20562;-74
2023/05/03 11:43:06;;;;;;;5.55;1.65;;;16.00;99.90;;;;;;5023194;28;20132;-74
2023/05/03 11:45:40;;;;;;;5.00;1.10;;;16.10;99.90;;;;;;5020868;28;20080;-81
2023/05/03 11:48:07;;;;;;;4.22;0.90;;;16.30;99.90;;;;;;4999088;28;20048;-75
2023/05/03 11:50:45;;;;;;;6.65;1.23;;;16.40;99.90;;;;;;5003911;28;20056;-81
2023/05/03 11:53:12;;;;;;;8.63;1.15;;;16.20;99.70;;;;;;5021924;28;20045;-76
2023/05/03 11:55:41;;;;;;;4.70;1.10;;;16.60;99.90;;;;;;5011086;28;20081;-75
2023/05/03 11:58:13;;;;;;;5.85;1.20;;;16.80;99.90;;;;;;5019765;28;20053;-79
2023/05/03 12:00:41;;;;;;;5.97;1.10;;;17.00;99.90;;;;;;5018865;28;20065;-77
2023/05/03 12:03:07;;;;;;;5.72;1.00;;;16.90;99.30;;;;;;5019946;28;20044;-76
2023/05/03 12:05:33;;;;;;;2.90;1.00;;;16.60;99.70;;;;;;5002493;28;20133;-76
2023/05/03 12:07:59;;;;;;;6.65;1.75;;;16.70;99.90;;;;;;5022428;28;20661;-76
2023/05/03 12:10:31;;;;;;;6.43;2.08;;;16.80;99.40;;;;;;5023144;28;20073;-76
2023/05/03 12:12:58;;;;;;;4.22;0.80;;;16.70;98.80;;;;;;5000106;28;20404;-78
2023/05/03 12:15:29;;;;;;;5.40;1.50;;;16.70;99.10;;;;;;5004963;28;20053;-80
2023/05/03 12:17:56;;;;;;;3.25;0.90;;;16.70;98.10;;;;;;5021571;28;20056;-80
2023/05/03 12:20:23;;;;;;;4.93;1.25;;;17.00;99.20;;;;;;5019379;28;20125;-76
2023/05/03 12:22:54;;;;;;;4.30;1.10;;;17.10;99.20;;;;;;5002121;28;20054;-80
2023/05/03 12:25:20;;;;;;;5.22;1.05;;;16.90;96.90;;;;;;5022111;28;20405;-76
2023/05/03 12:27:46;;;;;;;4.60;1.10;;;16.70;98.50;;;;;;5022347;28;20408;-76
2023/05/03 12:30:13;;;;;;;4.15;1.10;;;17.00;98.50;;;;;;5020714;28;20052;-78
2023/05/03 12:32:39;;;;;;;3.92;0.90;;;17.00;98.20;;;;;;5018834;28;20499;-76
2023/05/03 12:35:07;;;;;;;4.15;1.10;;;17.20;98.30;;;;;;5019401;28;20048;-78
2023/05/03 12:37:33;;;;;;;8.73;1.55;;;17.20;98.00;;;;;;5011122;28;20034;-85
2023/05/03 12:40:00;;;;;;;2.85;0.93;;;17.40;98.20;;;;;;5019391;28;20160;-75
2023/05/03 12:42:26;;;;;;;3.88;1.00;;;17.40;98.30;;;;;;5003104;28;20413;-77
2023/05/03 12:44:55;;;;;;;5.43;1.10;;;17.40;98.20;;;;;;4988340;28;20059;-75
2023/05/03 12:47:20;;;;;;;3.08;0.95;;;17.30;98.20;;;;;;5004365;28;20132;-77
2023/05/03 12:49:46;;;;;;;3.40;1.10;;;17.50;97.90;;;;;;5000740;28;20474;-76
2023/05/03 12:52:12;;;;;;;3.40;1.00;;;17.70;98.20;;;;;;5000377;28;20041;-76
2023/05/03 12:54:37;;;;;;;4.82;1.15;;;17.40;98.10;;;;;;5002682;28;20058;-76